sensor_id;sensor_type;location;lat;lon;timestamp;P1;durP1;ratioP1;P2;durP2;ratioP2
56122;SDS011;42426;46.104;19.656;2023-11-19T00:01:52;34.83;;;15.55;;
56122;SDS011;42426;46.104;19.656;2023-11-19T00:04:19;31.02;;;16.63;;
56122;SDS011;42426;46.104;19.656;2023-11-19T00:06:46;39.92;;;18.42;;
56122;SDS011;42426;46.104;19.656;2023-11-19T00:09:12;34.17;;;17.10;;
56122;SDS011;42426;46.104;19.656;2023-11-19T00:11:37;25.35;;;13.43;;
56122;SDS011;42426;46.104;19.656;2023-11-19T00:14:03;27.10;;;14.23;;
56122;SDS011;42426;46.104;19.656;2023-11-19T00:16:29;26.33;;;14.50;;
56122;SDS011;42426;46.104;19.656;2023-11-19T00:18:57;26.98;;;15.65;;
56122;SDS011;42426;46.104;19.656;2023-11-19T00:21:23;27.92;;;16.98;;
56122;SDS011;42426;46.104;19.656;2023-11-19T00:23:49;32.03;;;18.35;;
56122;SDS011;42426;46.104;19.656;2023-11-19T00:26:15;27.20;;;16.15;;
56122;SDS011;42426;46.104;19.656;2023-11-19T00:28:41;26.50;;;16.58;;
56122;SDS011;42426;46.104;19.656;2023-11-19T00:31:08;24.55;;;16.10;;
56122;SDS011;42426;46.104;19.656;2023-11-19T00:33:34;27.30;;;15.45;;
56122;SDS011;42426;46.104;19.656;2023-11-19T00:35:59;24.35;;;14.82;;
56122;SDS011;42426;46.104;19.656;2023-11-19T00:38:25;21.30;;;13.63;;
56122;SDS011;42426;46.104;19.656;2023-11-19T00:40:51;16.15;;;11.00;;
56122;SDS011;42426;46.104;19.656;2023-11-19T00:43:17;16.38;;;10.73;;
56122;SDS011;42426;46.104;19.656;2023-11-19T00:45:43;15.50;;;10.23;;
56122;SDS011;42426;46.104;19.656;2023-11-19T00:48:09;15.88;;;10.68;;
56122;SDS011;42426;46.104;19.656;2023-11-19T00:50:35;14.60;;;9.88;;
56122;SDS011;42426;46.104;19.656;2023-11-19T00:53:01;13.45;;;9.27;;
56122;SDS011;42426;46.104;19.656;2023-11-19T00:55:29;16.80;;;8.73;;
56122;SDS011;42426;46.104;19.656;2023-11-19T00:57:55;15.60;;;8.68;;
56122;SDS011;42426;46.104;19.656;2023-11-19T01:00:22;15.50;;;8.98;;
56122;SDS011;42426;46.104;19.656;2023-11-19T01:02:49;14.73;;;8.68;;
56122;SDS011;42426;46.104;19.656;2023-11-19T01:05:15;15.85;;;8.80;;
56122;SDS011;42426;46.104;19.656;2023-11-19T01:07:41;17.02;;;9.90;;
56122;SDS011;42426;46.104;19.656;2023-11-19T01:10:06;16.83;;;10.63;;
56122;SDS011;42426;46.104;19.656;2023-11-19T01:12:33;17.88;;;11.38;;
56122;SDS011;42426;46.104;19.656;2023-11-19T01:14:59;18.75;;;9.50;;
56122;SDS011;42426;46.104;19.656;2023-11-19T01:17:26;14.40;;;9.85;;
56122;SDS011;42426;46.104;19.656;2023-11-19T01:19:51;16.58;;;9.52;;
56122;SDS011;42426;46.104;19.656;2023-11-19T01:22:17;17.75;;;10.50;;
56122;SDS011;42426;46.104;19.656;2023-11-19T01:24:44;16.70;;;10.00;;
56122;SDS011;42426;46.104;19.656;2023-11-19T01:27:09;22.77;;;12.57;;
56122;SDS011;42426;46.104;19.656;2023-11-19T01:29:36;17.85;;;11.65;;
56122;SDS011;42426;46.104;19.656;2023-11-19T01:32:03;23.80;;;13.73;;
56122;SDS011;42426;46.104;19.656;2023-11-19T01:34:29;37.50;;;19.85;;
56122;SDS011;42426;46.104;19.656;2023-11-19T01:36:55;40.63;;;22.38;;
56122;SDS011;42426;46.104;19.656;2023-11-19T01:39:20;43.85;;;24.48;;
56122;SDS011;42426;46.104;19.656;2023-11-19T01:41:46;64.38;;;33.33;;
56122;SDS011;42426;46.104;19.656;2023-11-19T01:44:12;49.22;;;30.05;;
56122;SDS011;42426;46.104;19.656;2023-11-19T01:46:39;37.80;;;24.23;;
56122;SDS011;42426;46.104;19.656;2023-11-19T01:49:07;43.47;;;22.90;;
56122;SDS011;42426;46.104;19.656;2023-11-19T01:51:34;30.70;;;18.73;;
56122;SDS011;42426;46.104;19.656;2023-11-19T01:54:00;30.02;;;18.27;;
56122;SDS011;42426;46.104;19.656;2023-11-19T01:56:26;33.65;;;16.38;;
56122;SDS011;42426;46.104;19.656;2023-11-19T01:58:53;28.85;;;16.38;;
56122;SDS011;42426;46.104;19.656;2023-11-19T02:01:21;25.55;;;14.95;;
56122;SDS011;42426;46.104;19.656;2023-11-19T02:03:47;21.83;;;13.80;;
56122;SDS011;42426;46.104;19.656;2023-11-19T02:06:13;23.52;;;14.48;;
56122;SDS011;42426;46.104;19.656;2023-11-19T02:08:39;25.95;;;14.93;;
56122;SDS011;42426;46.104;19.656;2023-11-19T02:11:05;24.58;;;14.57;;
56122;SDS011;42426;46.104;19.656;2023-11-19T02:13:32;27.35;;;15.20;;
56122;SDS011;42426;46.104;19.656;2023-11-19T02:15:58;28.25;;;14.60;;
56122;SDS011;42426;46.104;19.656;2023-11-19T02:18:25;22.35;;;14.10;;
56122;SDS011;42426;46.104;19.656;2023-11-19T02:20:58;22.88;;;13.55;;
56122;SDS011;42426;46.104;19.656;2023-11-19T02:23:28;23.23;;;12.50;;
56122;SDS011;42426;46.104;19.656;2023-11-19T02:28:27;19.60;;;12.82;;
56122;SDS011;42426;46.104;19.656;2023-11-19T02:30:53;23.77;;;12.32;;
56122;SDS011;42426;46.104;19.656;2023-11-19T02:33:19;25.23;;;13.43;;
56122;SDS011;42426;46.104;19.656;2023-11-19T02:35:45;26.88;;;13.77;;
56122;SDS011;42426;46.104;19.656;2023-11-19T02:38:11;28.40;;;13.60;;
56122;SDS011;42426;46.104;19.656;2023-11-19T02:40:39;22.48;;;13.73;;
56122;SDS011;42426;46.104;19.656;2023-11-19T02:43:04;25.08;;;13.38;;
56122;SDS011;42426;46.104;19.656;2023-11-19T02:45:31;26.38;;;13.60;;
56122;SDS011;42426;46.104;19.656;2023-11-19T02:47:57;20.00;;;12.25;;
56122;SDS011;42426;46.104;19.656;2023-11-19T02:50:26;22.15;;;12.43;;
56122;SDS011;42426;46.104;19.656;2023-11-19T02:52:53;21.80;;;12.00;;
56122;SDS011;42426;46.104;19.656;2023-11-19T02:55:22;23.60;;;12.32;;
56122;SDS011;42426;46.104;19.656;2023-11-19T02:57:49;26.42;;;14.13;;
56122;SDS011;42426;46.104;19.656;2023-11-19T03:00:16;19.80;;;12.30;;
56122;SDS011;42426;46.104;19.656;2023-11-19T03:02:44;18.65;;;12.32;;
56122;SDS011;42426;46.104;19.656;2023-11-19T03:05:13;20.30;;;11.70;;
56122;SDS011;42426;46.104;19.656;2023-11-19T03:07:40;20.38;;;11.57;;
56122;SDS011;42426;46.104;19.656;2023-11-19T03:10:08;20.48;;;10.93;;
56122;SDS011;42426;46.104;19.656;2023-11-19T03:12:37;22.30;;;12.30;;
56122;SDS011;42426;46.104;19.656;2023-11-19T03:15:04;29.33;;;13.18;;
56122;SDS011;42426;46.104;19.656;2023-11-19T03:17:30;19.88;;;11.65;;
56122;SDS011;42426;46.104;19.656;2023-11-19T03:19:56;19.60;;;11.77;;
56122;SDS011;42426;46.104;19.656;2023-11-19T03:22:22;15.82;;;10.40;;
56122;SDS011;42426;46.104;19.656;2023-11-19T03:24:50;15.95;;;9.65;;
56122;SDS011;42426;46.104;19.656;2023-11-19T03:27:16;14.70;;;8.77;;
56122;SDS011;42426;46.104;19.656;2023-11-19T03:29:42;19.02;;;11.20;;
56122;SDS011;42426;46.104;19.656;2023-11-19T03:32:08;18.20;;;9.73;;
56122;SDS011;42426;46.104;19.656;2023-11-19T03:34:35;16.40;;;9.57;;
56122;SDS011;42426;46.104;19.656;2023-11-19T03:37:00;14.07;;;8.25;;
56122;SDS011;42426;46.104;19.656;2023-11-19T03:39:26;14.57;;;8.57;;
56122;SDS011;42426;46.104;19.656;2023-11-19T03:41:54;14.00;;;9.00;;
56122;SDS011;42426;46.104;19.656;2023-11-19T03:44:20;14.88;;;8.65;;
56122;SDS011;42426;46.104;19.656;2023-11-19T03:46:46;13.88;;;8.65;;
56122;SDS011;42426;46.104;19.656;2023-11-19T03:49:12;13.70;;;8.63;;
56122;SDS011;42426;46.104;19.656;2023-11-19T03:51:38;13.13;;;8.73;;
56122;SDS011;42426;46.104;19.656;2023-11-19T03:54:03;16.67;;;9.13;;
56122;SDS011;42426;46.104;19.656;2023-11-19T03:56:31;40.55;;;19.30;;
56122;SDS011;42426;46.104;19.656;2023-11-19T03:58:59;38.42;;;23.98;;
56122;SDS011;42426;46.104;19.656;2023-11-19T04:01:25;47.42;;;21.77;;
56122;SDS011;42426;46.104;19.656;2023-11-19T04:03:50;36.25;;;21.02;;
56122;SDS011;42426;46.104;19.656;2023-11-19T04:06:16;33.88;;;15.93;;
56122;SDS011;42426;46.104;19.656;2023-11-19T04:08:43;30.80;;;14.98;;
56122;SDS011;42426;46.104;19.656;2023-11-19T04:11:10;24.90;;;14.50;;
56122;SDS011;42426;46.104;19.656;2023-11-19T04:13:36;25.30;;;15.35;;
56122;SDS011;42426;46.104;19.656;2023-11-19T04:16:01;30.92;;;15.48;;
56122;SDS011;42426;46.104;19.656;2023-11-19T04:18:28;24.60;;;14.57;;
56122;SDS011;42426;46.104;19.656;2023-11-19T04:20:53;24.17;;;14.20;;
56122;SDS011;42426;46.104;19.656;2023-11-19T04:23:20;28.17;;;15.80;;
56122;SDS011;42426;46.104;19.656;2023-11-19T04:25:46;23.85;;;13.40;;
56122;SDS011;42426;46.104;19.656;2023-11-19T04:28:11;22.42;;;13.57;;
56122;SDS011;42426;46.104;19.656;2023-11-19T04:30:37;22.70;;;14.63;;
56122;SDS011;42426;46.104;19.656;2023-11-19T04:33:03;22.33;;;13.63;;
56122;SDS011;42426;46.104;19.656;2023-11-19T04:35:29;23.35;;;14.23;;
56122;SDS011;42426;46.104;19.656;2023-11-19T04:37:55;25.75;;;15.70;;
56122;SDS011;42426;46.104;19.656;2023-11-19T04:40:22;29.23;;;18.77;;
56122;SDS011;42426;46.104;19.656;2023-11-19T04:42:48;33.28;;;18.20;;
56122;SDS011;42426;46.104;19.656;2023-11-19T04:45:14;33.13;;;19.08;;
56122;SDS011;42426;46.104;19.656;2023-11-19T04:47:41;33.58;;;20.55;;
56122;SDS011;42426;46.104;19.656;2023-11-19T04:50:10;31.77;;;19.23;;
56122;SDS011;42426;46.104;19.656;2023-11-19T04:52:39;32.88;;;19.33;;
56122;SDS011;42426;46.104;19.656;2023-11-19T04:57:39;31.73;;;17.20;;
56122;SDS011;42426;46.104;19.656;2023-11-19T05:00:05;26.13;;;14.43;;
56122;SDS011;42426;46.104;19.656;2023-11-19T05:02:33;22.02;;;13.55;;
56122;SDS011;42426;46.104;19.656;2023-11-19T05:05:00;17.52;;;11.90;;
56122;SDS011;42426;46.104;19.656;2023-11-19T05:07:26;20.13;;;11.15;;
56122;SDS011;42426;46.104;19.656;2023-11-19T05:09:54;17.65;;;9.80;;
56122;SDS011;42426;46.104;19.656;2023-11-19T05:12:20;20.42;;;9.35;;
56122;SDS011;42426;46.104;19.656;2023-11-19T05:14:47;18.50;;;10.05;;
56122;SDS011;42426;46.104;19.656;2023-11-19T05:17:15;15.13;;;9.75;;
56122;SDS011;42426;46.104;19.656;2023-11-19T05:19:44;27.70;;;13.98;;
56122;SDS011;42426;46.104;19.656;2023-11-19T05:22:10;25.80;;;14.02;;
56122;SDS011;42426;46.104;19.656;2023-11-19T05:24:37;29.10;;;16.20;;
56122;SDS011;42426;46.104;19.656;2023-11-19T05:27:04;73.20;;;34.17;;
56122;SDS011;42426;46.104;19.656;2023-11-19T05:29:32;49.47;;;25.98;;
56122;SDS011;42426;46.104;19.656;2023-11-19T05:31:58;53.60;;;25.80;;
56122;SDS011;42426;46.104;19.656;2023-11-19T05:34:24;72.50;;;34.75;;
56122;SDS011;42426;46.104;19.656;2023-11-19T05:36:51;69.68;;;30.75;;
56122;SDS011;42426;46.104;19.656;2023-11-19T05:39:17;73.25;;;34.50;;
56122;SDS011;42426;46.104;19.656;2023-11-19T05:41:45;48.83;;;23.70;;
56122;SDS011;42426;46.104;19.656;2023-11-19T05:44:11;32.72;;;19.05;;
56122;SDS011;42426;46.104;19.656;2023-11-19T05:46:37;63.05;;;33.25;;
56122;SDS011;42426;46.104;19.656;2023-11-19T05:49:07;94.00;;;45.05;;
56122;SDS011;42426;46.104;19.656;2023-11-19T05:51:37;83.53;;;42.40;;
56122;SDS011;42426;46.104;19.656;2023-11-19T05:54:04;77.97;;;43.88;;
56122;SDS011;42426;46.104;19.656;2023-11-19T05:56:31;92.65;;;47.90;;
56122;SDS011;42426;46.104;19.656;2023-11-19T05:58:59;86.85;;;45.72;;
56122;SDS011;42426;46.104;19.656;2023-11-19T06:01:39;122.88;;;60.95;;
56122;SDS011;42426;46.104;19.656;2023-11-19T06:04:06;102.80;;;54.65;;
56122;SDS011;42426;46.104;19.656;2023-11-19T06:06:32;119.68;;;55.42;;
56122;SDS011;42426;46.104;19.656;2023-11-19T06:08:59;108.15;;;55.22;;
56122;SDS011;42426;46.104;19.656;2023-11-19T06:11:27;104.10;;;49.65;;
56122;SDS011;42426;46.104;19.656;2023-11-19T06:13:53;99.45;;;47.67;;
56122;SDS011;42426;46.104;19.656;2023-11-19T06:16:19;104.85;;;51.10;;
56122;SDS011;42426;46.104;19.656;2023-11-19T06:18:45;90.05;;;48.17;;
56122;SDS011;42426;46.104;19.656;2023-11-19T06:21:12;87.70;;;44.78;;
56122;SDS011;42426;46.104;19.656;2023-11-19T06:23:38;101.35;;;53.30;;
56122;SDS011;42426;46.104;19.656;2023-11-19T06:26:04;106.63;;;59.15;;
56122;SDS011;42426;46.104;19.656;2023-11-19T06:28:31;96.65;;;51.80;;
56122;SDS011;42426;46.104;19.656;2023-11-19T06:30:57;99.45;;;54.70;;
56122;SDS011;42426;46.104;19.656;2023-11-19T06:33:24;89.05;;;47.13;;
56122;SDS011;42426;46.104;19.656;2023-11-19T06:35:51;73.43;;;42.15;;
56122;SDS011;42426;46.104;19.656;2023-11-19T06:38:20;74.80;;;38.22;;
56122;SDS011;42426;46.104;19.656;2023-11-19T06:40:46;70.03;;;34.90;;
56122;SDS011;42426;46.104;19.656;2023-11-19T06:43:12;59.60;;;30.85;;
56122;SDS011;42426;46.104;19.656;2023-11-19T06:45:38;54.80;;;28.38;;
56122;SDS011;42426;46.104;19.656;2023-11-19T06:48:05;49.00;;;27.52;;
56122;SDS011;42426;46.104;19.656;2023-11-19T06:50:31;48.20;;;27.20;;
56122;SDS011;42426;46.104;19.656;2023-11-19T06:53:00;56.15;;;29.67;;
56122;SDS011;42426;46.104;19.656;2023-11-19T06:55:26;65.18;;;35.03;;
56122;SDS011;42426;46.104;19.656;2023-11-19T06:57:52;92.22;;;50.47;;
56122;SDS011;42426;46.104;19.656;2023-11-19T07:00:18;104.30;;;59.47;;
56122;SDS011;42426;46.104;19.656;2023-11-19T07:02:45;92.85;;;53.25;;
56122;SDS011;42426;46.104;19.656;2023-11-19T07:05:11;106.32;;;63.00;;
56122;SDS011;42426;46.104;19.656;2023-11-19T07:07:39;90.05;;;50.17;;
56122;SDS011;42426;46.104;19.656;2023-11-19T07:10:05;63.40;;;37.55;;
56122;SDS011;42426;46.104;19.656;2023-11-19T07:12:34;57.78;;;35.90;;
56122;SDS011;42426;46.104;19.656;2023-11-19T07:15:01;62.10;;;36.28;;
56122;SDS011;42426;46.104;19.656;2023-11-19T07:17:28;55.95;;;31.88;;
56122;SDS011;42426;46.104;19.656;2023-11-19T07:19:54;50.35;;;31.08;;
56122;SDS011;42426;46.104;19.656;2023-11-19T07:22:20;50.22;;;27.23;;
56122;SDS011;42426;46.104;19.656;2023-11-19T07:24:46;37.70;;;22.60;;
56122;SDS011;42426;46.104;19.656;2023-11-19T07:27:12;33.08;;;22.25;;
56122;SDS011;42426;46.104;19.656;2023-11-19T07:29:38;44.00;;;25.45;;
56122;SDS011;42426;46.104;19.656;2023-11-19T07:32:05;44.75;;;25.80;;
56122;SDS011;42426;46.104;19.656;2023-11-19T07:34:31;39.08;;;23.00;;
56122;SDS011;42426;46.104;19.656;2023-11-19T07:36:57;38.78;;;23.52;;
56122;SDS011;42426;46.104;19.656;2023-11-19T07:39:27;42.17;;;24.80;;
56122;SDS011;42426;46.104;19.656;2023-11-19T07:41:53;39.85;;;24.73;;
56122;SDS011;42426;46.104;19.656;2023-11-19T07:44:20;49.22;;;30.42;;
56122;SDS011;42426;46.104;19.656;2023-11-19T07:46:46;46.38;;;28.85;;
56122;SDS011;42426;46.104;19.656;2023-11-19T07:49:13;50.92;;;27.98;;
56122;SDS011;42426;46.104;19.656;2023-11-19T07:51:39;48.92;;;24.85;;
56122;SDS011;42426;46.104;19.656;2023-11-19T07:54:05;49.03;;;27.40;;
56122;SDS011;42426;46.104;19.656;2023-11-19T07:56:33;44.17;;;25.23;;
56122;SDS011;42426;46.104;19.656;2023-11-19T07:59:00;35.05;;;21.15;;
56122;SDS011;42426;46.104;19.656;2023-11-19T08:01:26;32.90;;;18.45;;
56122;SDS011;42426;46.104;19.656;2023-11-19T08:03:52;32.20;;;20.88;;
56122;SDS011;42426;46.104;19.656;2023-11-19T08:06:19;30.65;;;18.85;;
56122;SDS011;42426;46.104;19.656;2023-11-19T08:08:45;36.90;;;19.63;;
56122;SDS011;42426;46.104;19.656;2023-11-19T08:11:13;34.78;;;18.42;;
56122;SDS011;42426;46.104;19.656;2023-11-19T08:13:40;30.55;;;18.88;;
56122;SDS011;42426;46.104;19.656;2023-11-19T08:16:07;26.33;;;16.10;;
56122;SDS011;42426;46.104;19.656;2023-11-19T08:18:33;28.85;;;15.27;;
56122;SDS011;42426;46.104;19.656;2023-11-19T08:20:59;21.38;;;13.43;;
56122;SDS011;42426;46.104;19.656;2023-11-19T08:23:25;19.42;;;11.30;;
56122;SDS011;42426;46.104;19.656;2023-11-19T08:25:53;22.10;;;12.98;;
56122;SDS011;42426;46.104;19.656;2023-11-19T08:28:20;20.33;;;11.50;;
56122;SDS011;42426;46.104;19.656;2023-11-19T08:30:46;21.02;;;12.10;;
56122;SDS011;42426;46.104;19.656;2023-11-19T08:33:13;20.98;;;11.00;;
56122;SDS011;42426;46.104;19.656;2023-11-19T08:35:40;22.75;;;13.00;;
56122;SDS011;42426;46.104;19.656;2023-11-19T08:38:06;30.15;;;13.98;;
56122;SDS011;42426;46.104;19.656;2023-11-19T08:40:32;22.85;;;13.80;;
56122;SDS011;42426;46.104;19.656;2023-11-19T08:42:58;23.17;;;14.23;;
56122;SDS011;42426;46.104;19.656;2023-11-19T08:45:24;24.35;;;13.90;;
56122;SDS011;42426;46.104;19.656;2023-11-19T08:47:52;20.58;;;12.07;;
56122;SDS011;42426;46.104;19.656;2023-11-19T08:50:18;29.40;;;16.30;;
56122;SDS011;42426;46.104;19.656;2023-11-19T08:52:44;24.40;;;12.48;;
56122;SDS011;42426;46.104;19.656;2023-11-19T08:55:10;23.85;;;13.02;;
56122;SDS011;42426;46.104;19.656;2023-11-19T08:57:38;21.35;;;12.23;;
56122;SDS011;42426;46.104;19.656;2023-11-19T09:00:05;28.02;;;15.27;;
56122;SDS011;42426;46.104;19.656;2023-11-19T09:02:37;18.55;;;11.80;;
56122;SDS011;42426;46.104;19.656;2023-11-19T09:05:03;18.90;;;13.07;;
56122;SDS011;42426;46.104;19.656;2023-11-19T09:07:30;23.95;;;14.27;;
56122;SDS011;42426;46.104;19.656;2023-11-19T09:09:56;19.08;;;12.10;;
56122;SDS011;42426;46.104;19.656;2023-11-19T09:12:22;22.38;;;13.02;;
56122;SDS011;42426;46.104;19.656;2023-11-19T09:14:48;23.45;;;13.48;;
56122;SDS011;42426;46.104;19.656;2023-11-19T09:17:14;24.58;;;14.90;;
56122;SDS011;42426;46.104;19.656;2023-11-19T09:19:40;24.02;;;13.88;;
56122;SDS011;42426;46.104;19.656;2023-11-19T09:22:07;18.13;;;10.77;;
56122;SDS011;42426;46.104;19.656;2023-11-19T09:24:33;21.02;;;11.73;;
56122;SDS011;42426;46.104;19.656;2023-11-19T09:26:59;19.73;;;12.15;;
56122;SDS011;42426;46.104;19.656;2023-11-19T09:29:25;25.85;;;13.98;;
56122;SDS011;42426;46.104;19.656;2023-11-19T09:31:52;26.42;;;15.90;;
56122;SDS011;42426;46.104;19.656;2023-11-19T09:34:18;19.73;;;10.63;;
56122;SDS011;42426;46.104;19.656;2023-11-19T09:36:45;21.90;;;12.68;;
56122;SDS011;42426;46.104;19.656;2023-11-19T09:39:11;21.52;;;12.52;;
56122;SDS011;42426;46.104;19.656;2023-11-19T09:41:43;19.05;;;10.88;;
56122;SDS011;42426;46.104;19.656;2023-11-19T09:44:10;18.77;;;11.30;;
56122;SDS011;42426;46.104;19.656;2023-11-19T09:46:37;21.13;;;11.35;;
56122;SDS011;42426;46.104;19.656;2023-11-19T09:49:04;20.42;;;12.40;;
56122;SDS011;42426;46.104;19.656;2023-11-19T09:51:32;27.98;;;13.20;;
56122;SDS011;42426;46.104;19.656;2023-11-19T09:54:01;25.95;;;14.95;;
56122;SDS011;42426;46.104;19.656;2023-11-19T09:56:27;23.25;;;14.20;;
56122;SDS011;42426;46.104;19.656;2023-11-19T09:58:55;23.50;;;15.43;;
56122;SDS011;42426;46.104;19.656;2023-11-19T10:01:21;29.35;;;15.40;;
56122;SDS011;42426;46.104;19.656;2023-11-19T10:03:47;33.15;;;18.58;;
56122;SDS011;42426;46.104;19.656;2023-11-19T10:06:16;32.75;;;14.73;;
56122;SDS011;42426;46.104;19.656;2023-11-19T10:08:44;20.48;;;11.38;;
56122;SDS011;42426;46.104;19.656;2023-11-19T10:11:10;18.98;;;11.57;;
56122;SDS011;42426;46.104;19.656;2023-11-19T10:13:38;17.77;;;11.38;;
56122;SDS011;42426;46.104;19.656;2023-11-19T10:16:13;16.45;;;12.00;;
56122;SDS011;42426;46.104;19.656;2023-11-19T10:18:49;15.15;;;11.15;;
56122;SDS011;42426;46.104;19.656;2023-11-19T10:21:34;19.45;;;11.77;;
56122;SDS011;42426;46.104;19.656;2023-11-19T10:27:06;19.92;;;11.70;;
56122;SDS011;42426;46.104;19.656;2023-11-19T10:29:35;18.08;;;10.25;;
56122;SDS011;42426;46.104;19.656;2023-11-19T10:32:02;16.52;;;10.48;;
56122;SDS011;42426;46.104;19.656;2023-11-19T10:34:29;18.98;;;11.20;;
56122;SDS011;42426;46.104;19.656;2023-11-19T10:36:55;16.77;;;10.88;;
56122;SDS011;42426;46.104;19.656;2023-11-19T10:39:21;19.95;;;13.07;;
56122;SDS011;42426;46.104;19.656;2023-11-19T10:41:49;14.45;;;9.13;;
56122;SDS011;42426;46.104;19.656;2023-11-19T10:47:01;20.10;;;10.63;;
56122;SDS011;42426;46.104;19.656;2023-11-19T10:49:27;13.60;;;8.93;;
56122;SDS011;42426;46.104;19.656;2023-11-19T10:51:53;17.50;;;9.65;;
56122;SDS011;42426;46.104;19.656;2023-11-19T10:54:22;15.70;;;8.93;;
56122;SDS011;42426;46.104;19.656;2023-11-19T10:56:55;13.43;;;8.68;;
56122;SDS011;42426;46.104;19.656;2023-11-19T10:59:25;14.27;;;7.95;;
56122;SDS011;42426;46.104;19.656;2023-11-19T11:01:54;11.85;;;7.82;;
56122;SDS011;42426;46.104;19.656;2023-11-19T11:04:24;10.82;;;7.93;;
56122;SDS011;42426;46.104;19.656;2023-11-19T11:06:53;9.88;;;6.32;;
56122;SDS011;42426;46.104;19.656;2023-11-19T11:09:20;11.70;;;8.02;;
56122;SDS011;42426;46.104;19.656;2023-11-19T11:11:48;11.52;;;8.10;;
56122;SDS011;42426;46.104;19.656;2023-11-19T11:14:15;12.98;;;8.32;;
56122;SDS011;42426;46.104;19.656;2023-11-19T11:16:42;13.82;;;8.68;;
56122;SDS011;42426;46.104;19.656;2023-11-19T11:19:09;14.98;;;8.77;;
56122;SDS011;42426;46.104;19.656;2023-11-19T11:21:37;14.63;;;9.07;;
56122;SDS011;42426;46.104;19.656;2023-11-19T11:24:26;14.88;;;9.00;;
56122;SDS011;42426;46.104;19.656;2023-11-19T11:29:41;18.27;;;10.32;;
56122;SDS011;42426;46.104;19.656;2023-11-19T11:37:29;22.55;;;12.20;;
56122;SDS011;42426;46.104;19.656;2023-11-19T11:39:57;16.48;;;10.13;;
56122;SDS011;42426;46.104;19.656;2023-11-19T11:45:08;14.13;;;10.38;;
56122;SDS011;42426;46.104;19.656;2023-11-19T11:50:12;22.98;;;12.82;;
56122;SDS011;42426;46.104;19.656;2023-11-19T11:55:26;15.82;;;10.43;;
56122;SDS011;42426;46.104;19.656;2023-11-19T11:57:55;15.57;;;9.65;;
56122;SDS011;42426;46.104;19.656;2023-11-19T12:00:22;17.25;;;9.68;;
56122;SDS011;42426;46.104;19.656;2023-11-19T12:02:48;14.50;;;9.63;;
56122;SDS011;42426;46.104;19.656;2023-11-19T12:05:15;16.77;;;9.30;;
56122;SDS011;42426;46.104;19.656;2023-11-19T12:07:44;15.70;;;10.18;;
56122;SDS011;42426;46.104;19.656;2023-11-19T12:10:20;14.80;;;10.35;;
56122;SDS011;42426;46.104;19.656;2023-11-19T12:12:47;15.13;;;9.50;;
56122;SDS011;42426;46.104;19.656;2023-11-19T12:15:13;14.10;;;9.73;;
56122;SDS011;42426;46.104;19.656;2023-11-19T12:17:43;16.50;;;10.43;;
56122;SDS011;42426;46.104;19.656;2023-11-19T12:20:14;15.60;;;9.65;;
56122;SDS011;42426;46.104;19.656;2023-11-19T12:22:42;13.07;;;8.82;;
56122;SDS011;42426;46.104;19.656;2023-11-19T12:25:09;18.13;;;10.48;;
56122;SDS011;42426;46.104;19.656;2023-11-19T12:27:35;18.52;;;9.57;;
56122;SDS011;42426;46.104;19.656;2023-11-19T12:30:02;14.10;;;9.40;;
56122;SDS011;42426;46.104;19.656;2023-11-19T12:32:38;15.70;;;9.77;;
56122;SDS011;42426;46.104;19.656;2023-11-19T12:35:05;17.60;;;11.20;;
56122;SDS011;42426;46.104;19.656;2023-11-19T12:37:31;17.02;;;10.73;;
56122;SDS011;42426;46.104;19.656;2023-11-19T12:39:57;17.65;;;11.40;;
56122;SDS011;42426;46.104;19.656;2023-11-19T12:42:37;24.73;;;11.55;;
56122;SDS011;42426;46.104;19.656;2023-11-19T12:45:04;21.65;;;12.93;;
56122;SDS011;42426;46.104;19.656;2023-11-19T12:47:30;24.55;;;12.82;;
56122;SDS011;42426;46.104;19.656;2023-11-19T12:49:56;16.77;;;10.77;;
56122;SDS011;42426;46.104;19.656;2023-11-19T12:52:23;18.05;;;11.07;;
56122;SDS011;42426;46.104;19.656;2023-11-19T12:54:49;19.02;;;10.30;;
56122;SDS011;42426;46.104;19.656;2023-11-19T12:57:16;16.05;;;9.13;;
56122;SDS011;42426;46.104;19.656;2023-11-19T12:59:54;16.92;;;10.00;;
56122;SDS011;42426;46.104;19.656;2023-11-19T13:02:23;14.90;;;9.73;;
56122;SDS011;42426;46.104;19.656;2023-11-19T13:07:59;21.30;;;11.13;;
56122;SDS011;42426;46.104;19.656;2023-11-19T13:10:25;18.70;;;10.43;;
56122;SDS011;42426;46.104;19.656;2023-11-19T13:13:08;17.88;;;11.18;;
56122;SDS011;42426;46.104;19.656;2023-11-19T13:15:35;15.55;;;9.73;;
56122;SDS011;42426;46.104;19.656;2023-11-19T13:18:02;17.33;;;9.85;;
56122;SDS011;42426;46.104;19.656;2023-11-19T13:20:29;22.80;;;11.50;;
56122;SDS011;42426;46.104;19.656;2023-11-19T13:22:56;20.13;;;10.85;;
56122;SDS011;42426;46.104;19.656;2023-11-19T13:25:22;15.05;;;9.75;;
56122;SDS011;42426;46.104;19.656;2023-11-19T13:27:49;16.60;;;10.55;;
56122;SDS011;42426;46.104;19.656;2023-11-19T13:30:15;19.02;;;11.35;;
56122;SDS011;42426;46.104;19.656;2023-11-19T13:32:41;20.23;;;10.20;;
56122;SDS011;42426;46.104;19.656;2023-11-19T13:35:09;17.38;;;11.43;;
56122;SDS011;42426;46.104;19.656;2023-11-19T13:37:35;18.20;;;11.38;;
56122;SDS011;42426;46.104;19.656;2023-11-19T13:40:01;16.00;;;10.48;;
56122;SDS011;42426;46.104;19.656;2023-11-19T13:42:30;20.80;;;11.40;;
56122;SDS011;42426;46.104;19.656;2023-11-19T13:44:56;17.52;;;10.45;;
56122;SDS011;42426;46.104;19.656;2023-11-19T13:47:22;17.88;;;10.15;;
56122;SDS011;42426;46.104;19.656;2023-11-19T13:49:49;26.08;;;13.80;;
56122;SDS011;42426;46.104;19.656;2023-11-19T13:52:15;22.10;;;12.30;;
56122;SDS011;42426;46.104;19.656;2023-11-19T13:54:41;25.48;;;12.73;;
56122;SDS011;42426;46.104;19.656;2023-11-19T13:57:07;27.73;;;15.25;;
56122;SDS011;42426;46.104;19.656;2023-11-19T13:59:34;28.38;;;16.27;;
56122;SDS011;42426;46.104;19.656;2023-11-19T14:02:05;29.67;;;16.08;;
56122;SDS011;42426;46.104;19.656;2023-11-19T14:04:33;25.17;;;12.90;;
56122;SDS011;42426;46.104;19.656;2023-11-19T14:06:59;30.65;;;16.05;;
56122;SDS011;42426;46.104;19.656;2023-11-19T14:09:27;30.42;;;16.80;;
56122;SDS011;42426;46.104;19.656;2023-11-19T14:11:55;20.33;;;13.13;;
56122;SDS011;42426;46.104;19.656;2023-11-19T14:14:21;24.02;;;14.07;;
56122;SDS011;42426;46.104;19.656;2023-11-19T14:16:47;32.67;;;14.02;;
56122;SDS011;42426;46.104;19.656;2023-11-19T14:19:15;21.90;;;13.93;;
56122;SDS011;42426;46.104;19.656;2023-11-19T14:21:41;19.92;;;12.15;;
56122;SDS011;42426;46.104;19.656;2023-11-19T14:24:07;23.08;;;13.50;;
56122;SDS011;42426;46.104;19.656;2023-11-19T14:26:33;23.42;;;13.02;;
56122;SDS011;42426;46.104;19.656;2023-11-19T14:29:01;18.98;;;11.95;;
56122;SDS011;42426;46.104;19.656;2023-11-19T14:31:29;21.90;;;13.30;;
56122;SDS011;42426;46.104;19.656;2023-11-19T14:33:57;18.48;;;11.77;;
56122;SDS011;42426;46.104;19.656;2023-11-19T14:36:23;19.20;;;11.50;;
56122;SDS011;42426;46.104;19.656;2023-11-19T14:38:49;20.20;;;11.23;;
56122;SDS011;42426;46.104;19.656;2023-11-19T14:41:15;15.85;;;11.00;;